Time;durP1;ratioP1;P1;durP2;ratioP2;P2;SDS_P1;SDS_P2;PMS_P1;PMS_P2;Temp;Humidity;BMP_temperature;BMP_pressure;BME280_temperature;BME280_humidity;BME280_pressure;Samples;Min_cycle;Max_cycle;Signal;HPM_P1;HPM_P2
2023/07/29 00:01:19;;;;;;;7.05;3.00;;;24.90;99.90;;;;;;7382594;19;20217;-75
2023/07/29 00:03:44;;;;;;;6.43;2.60;;;24.80;99.90;;;;;;7404724;19;19933;-75
2023/07/29 00:06:10;;;;;;;10.02;3.15;;;24.80;99.90;;;;;;7405288;19;19915;-75
2023/07/29 00:08:36;;;;;;;7.07;3.03;;;24.80;99.90;;;;;;7407966;19;20311;-74
2023/07/29 00:11:02;;;;;;;4.97;2.20;;;24.80;99.90;;;;;;7405240;19;19919;-75
2023/07/29 00:13:28;;;;;;;10.35;2.92;;;24.80;99.90;;;;;;7407122;19;19922;-75
2023/07/29 00:15:55;;;;;;;8.57;3.08;;;24.80;99.90;;;;;;7406684;19;20264;-75
2023/07/29 00:18:22;;;;;;;6.63;2.78;;;24.80;99.90;;;;;;7404379;19;20283;-74
2023/07/29 00:20:48;;;;;;;7.80;2.70;;;24.80;99.90;;;;;;7403628;19;19922;-75
2023/07/29 00:23:14;;;;;;;7.25;3.22;;;24.90;99.90;;;;;;7405853;19;19923;-75
2023/07/29 00:25:40;;;;;;;8.73;2.63;;;24.90;99.90;;;;;;7404921;19;19918;-75
2023/07/29 00:28:06;;;;;;;7.05;3.05;;;24.80;99.90;;;;;;7400842;19;19918;-74
2023/07/29 00:30:32;;;;;;;11.63;3.45;;;24.90;99.90;;;;;;7404455;19;20297;-74
2023/07/29 00:32:57;;;;;;;7.38;3.22;;;24.90;99.90;;;;;;7404809;19;19910;-75
2023/07/29 00:35:23;;;;;;;9.55;3.30;;;24.90;99.90;;;;;;7402029;19;19929;-76
2023/07/29 00:37:49;;;;;;;8.60;3.30;;;24.80;99.90;;;;;;7405133;19;19933;-76
2023/07/29 00:40:21;;;;;;;7.97;3.40;;;24.90;99.90;;;;;;7401279;19;19926;-76
2023/07/29 00:42:47;;;;;;;8.70;3.60;;;24.90;99.90;;;;;;7406430;19;19918;-76
2023/07/29 00:45:13;;;;;;;7.32;2.97;;;24.80;99.90;;;;;;7398680;19;19903;-75
2023/07/29 00:47:40;;;;;;;7.38;3.17;;;24.70;99.90;;;;;;7404563;19;19922;-76
2023/07/29 00:50:08;;;;;;;6.80;3.03;;;24.80;99.90;;;;;;7401688;19;19966;-76
2023/07/29 00:52:34;;;;;;;10.00;3.33;;;24.70;99.90;;;;;;7404460;19;19915;-75
2023/07/29 00:54:59;;;;;;;8.10;3.60;;;24.70;99.90;;;;;;7404021;19;20338;-76
2023/07/29 00:57:26;;;;;;;9.52;3.53;;;24.60;99.90;;;;;;7382989;19;19920;-75
2023/07/29 00:59:53;;;;;;;8.63;3.70;;;24.60;99.90;;;;;;7403425;19;20395;-75
2023/07/29 01:02:19;;;;;;;6.78;3.55;;;24.70;99.90;;;;;;7405290;19;20267;-75
2023/07/29 01:04:45;;;;;;;7.00;3.47;;;24.70;99.90;;;;;;7404618;19;19910;-75
2023/07/29 01:07:42;;;;;;;7.80;3.10;;;24.60;99.90;;;;;;7400702;19;19915;-75
2023/07/29 01:10:23;;;;;;;14.52;3.88;;;24.70;99.90;;;;;;7402540;19;19914;-75
2023/07/29 01:13:03;;;;;;;15.60;3.88;;;24.60;99.90;;;;;;7403274;19;19932;-75
2023/07/29 01:15:58;;;;;;;8.90;3.88;;;24.60;99.90;;;;;;7401363;19;19926;-75
2023/07/29 01:18:31;;;;;;;9.73;3.65;;;24.60;99.90;;;;;;7399721;19;19922;-75
2023/07/29 01:21:04;;;;;;;7.57;3.53;;;24.60;99.90;;;;;;7401193;19;19917;-75
2023/07/29 01:23:31;;;;;;;9.63;4.00;;;24.60;99.90;;;;;;7399729;19;19932;-76
2023/07/29 01:25:57;;;;;;;9.30;4.13;;;24.60;99.90;;;;;;7401353;19;19950;-75
2023/07/29 01:28:24;;;;;;;7.50;3.42;;;24.60;99.90;;;;;;7398753;19;20344;-75
2023/07/29 01:30:57;;;;;;;8.50;4.13;;;24.60;99.90;;;;;;7403650;19;19918;-75
2023/07/29 01:33:30;;;;;;;8.05;3.38;;;24.60;99.90;;;;;;7399528;19;20374;-74
2023/07/29 01:36:02;;;;;;;10.52;4.13;;;24.60;99.90;;;;;;7401454;19;19914;-75
2023/07/29 01:38:36;;;;;;;9.23;3.78;;;24.60;99.90;;;;;;7401463;19;20264;-75
2023/07/29 01:41:04;;;;;;;10.15;4.10;;;24.60;99.90;;;;;;7397382;19;19918;-74
2023/07/29 01:43:30;;;;;;;6.97;3.65;;;24.60;99.90;;;;;;7399432;19;19915;-75
2023/07/29 01:45:56;;;;;;;8.63;3.72;;;24.60;99.90;;;;;;7399111;19;19927;-75
2023/07/29 01:48:22;;;;;;;9.55;3.92;;;24.50;99.90;;;;;;7399555;19;19934;-76
2023/07/29 01:50:48;;;;;;;14.88;4.55;;;24.50;99.90;;;;;;7402275;19;19918;-76
2023/07/29 01:53:14;;;;;;;9.93;3.65;;;24.50;99.90;;;;;;7398123;19;19919;-76
2023/07/29 01:55:41;;;;;;;7.72;2.92;;;24.50;99.90;;;;;;7404355;19;20339;-75
2023/07/29 01:58:07;;;;;;;9.30;3.63;;;24.50;99.90;;;;;;7408022;19;19921;-75
2023/07/29 02:00:33;;;;;;;9.48;3.85;;;24.50;99.90;;;;;;7407595;19;19914;-75
2023/07/29 02:02:58;;;;;;;7.10;3.88;;;24.60;99.90;;;;;;7406569;19;19927;-75
2023/07/29 02:05:24;;;;;;;7.88;3.20;;;24.50;99.90;;;;;;7403239;19;20346;-75
2023/07/29 02:07:50;;;;;;;10.85;3.65;;;24.50;99.90;;;;;;7408999;19;19919;-75
2023/07/29 02:10:16;;;;;;;7.78;3.50;;;24.50;99.90;;;;;;7404766;19;19915;-74
2023/07/29 02:12:42;;;;;;;9.30;4.00;;;24.50;99.90;;;;;;7404470;19;19936;-76
2023/07/29 02:15:09;;;;;;;9.38;3.38;;;24.50;99.90;;;;;;7381523;19;19922;-76
2023/07/29 02:17:35;;;;;;;9.60;4.15;;;24.50;99.90;;;;;;7406470;19;19919;-75
2023/07/29 02:20:01;;;;;;;9.27;4.05;;;24.50;99.90;;;;;;7405567;19;19922;-76
2023/07/29 02:22:27;;;;;;;9.73;3.78;;;24.50;99.90;;;;;;7405313;19;19922;-75
2023/07/29 02:24:52;;;;;;;14.85;4.60;;;24.50;99.90;;;;;;7403833;19;19954;-75
2023/07/29 02:27:20;;;;;;;8.75;3.60;;;24.50;99.90;;;;;;7402640;19;19960;-75
2023/07/29 02:29:45;;;;;;;8.65;3.42;;;24.50;99.90;;;;;;7402436;19;19929;-75
2023/07/29 02:32:11;;;;;;;9.55;3.92;;;24.40;99.90;;;;;;7402515;19;20299;-75
2023/07/29 02:34:37;;;;;;;7.93;3.42;;;24.50;99.90;;;;;;7405577;19;19921;-74
2023/07/29 02:37:03;;;;;;;9.52;4.20;;;24.40;99.90;;;;;;7404063;19;19947;-74
2023/07/29 02:39:29;;;;;;;7.93;3.40;;;24.40;99.90;;;;;;7405210;19;19922;-75
2023/07/29 02:41:55;;;;;;;10.88;3.67;;;24.40;99.90;;;;;;7404416;19;19930;-74
2023/07/29 02:44:21;;;;;;;7.68;3.67;;;24.40;99.90;;;;;;7402435;19;19922;-74
2023/07/29 02:46:47;;;;;;;9.18;3.78;;;24.40;99.90;;;;;;7404028;19;20242;-75
2023/07/29 02:49:13;;;;;;;7.22;3.42;;;24.40;99.90;;;;;;7406033;19;19915;-74
2023/07/29 02:51:39;;;;;;;9.43;3.72;;;24.30;99.90;;;;;;7403613;19;20019;-75
2023/07/29 02:54:05;;;;;;;8.88;4.22;;;24.30;99.90;;;;;;7403226;19;19925;-76
2023/07/29 02:56:30;;;;;;;7.43;3.22;;;24.30;99.90;;;;;;7373534;19;19953;-76
2023/07/29 02:58:58;;;;;;;8.60;3.78;;;24.30;99.90;;;;;;7404224;19;19918;-75
2023/07/29 03:01:27;;;;;;;9.07;3.58;;;24.30;99.90;;;;;;7402428;19;19921;-75
2023/07/29 03:03:52;;;;;;;8.07;3.67;;;24.30;99.90;;;;;;7404412;19;19925;-75
2023/07/29 03:06:19;;;;;;;7.95;3.15;;;24.40;99.90;;;;;;7401889;19;19918;-75
2023/07/29 03:08:45;;;;;;;9.35;3.60;;;24.40;99.90;;;;;;7403588;19;19925;-75
2023/07/29 03:11:13;;;;;;;11.27;4.13;;;24.30;99.90;;;;;;7404937;19;20324;-75
2023/07/29 03:13:39;;;;;;;9.10;3.47;;;24.30;99.90;;;;;;7407350;19;19949;-75
2023/07/29 03:16:09;;;;;;;7.57;3.50;;;24.30;99.90;;;;;;7401340;19;20343;-75
2023/07/29 03:18:36;;;;;;;7.90;3.30;;;24.30;99.90;;;;;;7404629;19;19918;-75
2023/07/29 03:21:02;;;;;;;7.05;3.15;;;24.30;99.90;;;;;;7404467;19;19935;-75
2023/07/29 03:23:29;;;;;;;6.95;3.60;;;24.30;99.90;;;;;;7402745;19;19930;-75
2023/07/29 03:25:57;;;;;;;9.38;3.33;;;24.30;99.90;;;;;;7401951;19;20006;-75
2023/07/29 03:28:28;;;;;;;7.43;3.75;;;24.30;99.90;;;;;;7402158;19;19933;-75
2023/07/29 03:30:55;;;;;;;11.10;4.00;;;24.30;99.90;;;;;;7404158;19;19963;-75
2023/07/29 03:33:21;;;;;;;7.15;3.60;;;24.20;99.90;;;;;;7401041;19;20010;-75
2023/07/29 03:35:47;;;;;;;10.43;3.42;;;24.20;99.90;;;;;;7383014;19;20315;-75
2023/07/29 03:38:14;;;;;;;10.27;4.25;;;24.30;99.90;;;;;;7401541;19;19923;-75
2023/07/29 03:40:41;;;;;;;7.53;3.60;;;24.20;99.90;;;;;;7402003;19;19926;-75
2023/07/29 03:43:07;;;;;;;7.63;3.58;;;24.20;99.90;;;;;;7401608;19;19915;-75
2023/07/29 03:45:33;;;;;;;8.77;3.67;;;24.20;99.90;;;;;;7402427;19;19986;-75
2023/07/29 03:47:59;;;;;;;9.15;4.10;;;24.20;99.90;;;;;;7401850;19;19925;-75
2023/07/29 03:50:26;;;;;;;10.38;4.25;;;24.20;99.90;;;;;;7399310;19;19961;-74
2023/07/29 03:52:52;;;;;;;7.78;3.80;;;24.20;99.90;;;;;;7401831;19;19925;-75
2023/07/29 03:55:18;;;;;;;9.05;4.10;;;24.20;99.90;;;;;;7399632;19;19918;-74
2023/07/29 03:57:44;;;;;;;8.95;4.25;;;24.10;99.90;;;;;;7400534;19;19918;-75
2023/07/29 04:00:10;;;;;;;8.77;3.55;;;24.20;99.90;;;;;;7398109;19;20005;-75
2023/07/29 04:02:37;;;;;;;10.43;4.50;;;24.10;99.90;;;;;;7349110;19;19931;-75
2023/07/29 04:05:03;;;;;;;8.80;3.67;;;24.10;99.90;;;;;;7400545;19;19925;-75
2023/07/29 04:07:30;;;;;;;7.63;3.60;;;24.10;99.90;;;;;;7403019;19;19915;-75
2023/07/29 04:09:56;;;;;;;9.60;3.50;;;24.20;99.90;;;;;;7403319;19;19943;-74
2023/07/29 04:12:23;;;;;;;10.68;3.50;;;24.10;99.90;;;;;;7401365;19;20672;-75
2023/07/29 04:14:49;;;;;;;8.00;3.40;;;24.10;99.90;;;;;;7402282;19;19935;-74
2023/07/29 04:17:15;;;;;;;9.27;3.78;;;24.10;99.90;;;;;;7402502;19;20294;-74
2023/07/29 04:19:40;;;;;;;7.53;3.20;;;24.10;99.90;;;;;;7400727;19;19926;-73
2023/07/29 04:22:06;;;;;;;11.05;3.45;;;24.10;99.90;;;;;;7401056;19;19929;-76
2023/07/29 04:24:32;;;;;;;5.47;3.00;;;24.10;99.90;;;;;;7399754;19;19961;-74
2023/07/29 04:26:58;;;;;;;7.00;3.40;;;24.10;99.90;;;;;;7400689;19;19926;-74
2023/07/29 04:29:24;;;;;;;8.85;3.67;;;24.10;99.90;;;;;;7398282;19;19935;-74
2023/07/29 04:31:50;;;;;;;7.82;3.40;;;24.10;99.90;;;;;;7400512;19;19914;-74
2023/07/29 04:34:17;;;;;;;6.05;2.60;;;24.10;99.90;;;;;;7398770;19;19942;-74
2023/07/29 04:36:43;;;;;;;9.23;3.40;;;24.10;99.90;;;;;;7398955;19;19914;-74
2023/07/29 04:39:09;;;;;;;11.68;3.65;;;24.10;99.90;;;;;;7395277;19;20484;-73
2023/07/29 04:41:34;;;;;;;10.10;3.60;;;24.00;99.90;;;;;;7403540;19;19915;-73
2023/07/29 04:44:00;;;;;;;9.20;3.30;;;24.10;99.90;;;;;;7401063;19;19918;-74
2023/07/29 04:46:26;;;;;;;7.82;3.20;;;24.10;99.90;;;;;;7378184;19;19937;-74
2023/07/29 04:48:52;;;;;;;6.95;3.25;;;24.10;99.90;;;;;;7400303;19;19940;-75
2023/07/29 04:51:18;;;;;;;11.52;3.22;;;24.10;99.90;;;;;;7401024;19;19915;-74
2023/07/29 04:53:43;;;;;;;8.10;3.35;;;24.10;99.90;;;;;;7396220;19;19917;-75
2023/07/29 04:56:09;;;;;;;6.65;3.22;;;24.10;99.90;;;;;;7397861;19;19931;-75
2023/07/29 04:58:35;;;;;;;7.63;2.80;;;24.10;99.90;;;;;;7397404;19;19919;-75
2023/07/29 05:01:02;;;;;;;8.50;2.90;;;24.20;99.90;;;;;;7399291;19;19922;-74
2023/07/29 05:03:28;;;;;;;7.25;3.08;;;24.20;99.90;;;;;;7398454;19;19922;-75
2023/07/29 05:05:55;;;;;;;8.82;3.45;;;24.20;99.90;;;;;;7400604;19;20485;-74
2023/07/29 05:08:21;;;;;;;6.65;3.42;;;24.20;99.90;;;;;;7397823;19;19952;-75
2023/07/29 05:10:51;;;;;;;6.07;2.90;;;24.20;99.90;;;;;;7401250;19;19918;-75
2023/07/29 05:13:18;;;;;;;10.73;3.78;;;24.30;99.90;;;;;;7399512;19;20018;-74
2023/07/29 05:15:43;;;;;;;9.93;2.90;;;24.30;99.90;;;;;;7400455;19;19918;-75
2023/07/29 05:18:09;;;;;;;6.38;2.75;;;24.30;99.90;;;;;;7400099;19;19914;-74
2023/07/29 05:20:35;;;;;;;7.45;2.90;;;24.40;99.90;;;;;;7398462;19;19918;-74
2023/07/29 05:23:01;;;;;;;6.93;2.97;;;24.40;99.90;;;;;;7401018;19;20668;-74
2023/07/29 05:25:29;;;;;;;8.40;2.92;;;24.40;99.90;;;;;;7400681;19;19925;-75
2023/07/29 05:27:55;;;;;;;9.23;3.33;;;24.50;99.90;;;;;;7399268;19;20520;-75
2023/07/29 05:30:20;;;;;;;9.63;3.50;;;24.50;99.90;;;;;;7396608;19;19915;-75
2023/07/29 05:32:46;;;;;;;9.10;3.67;;;24.50;99.90;;;;;;7399620;19;20425;-75
2023/07/29 05:35:12;;;;;;;9.90;3.17;;;24.50;99.90;;;;;;7396526;19;20274;-75
2023/07/29 05:37:42;;;;;;;7.13;3.20;;;24.50;99.90;;;;;;7399751;19;19922;-75
2023/07/29 05:40:08;;;;;;;7.70;3.75;;;24.50;99.90;;;;;;7395686;19;19925;-75
2023/07/29 05:42:34;;;;;;;;;;;24.50;99.90;;;;;;7400357;19;19921;-74
2023/07/29 05:45:00;;;;;;;8.20;3.50;;;24.60;99.90;;;;;;7396833;19;20339;-74
2023/07/29 05:47:26;;;;;;;9.63;3.30;;;24.60;99.90;;;;;;7396779;19;19918;-74
2023/07/29 05:49:52;;;;;;;9.60;2.92;;;24.70;99.90;;;;;;7396496;19;19947;-74
2023/07/29 05:52:18;;;;;;;10.43;2.95;;;24.70;99.90;;;;;;7396768;19;19918;-74
2023/07/29 05:54:45;;;;;;;6.10;2.72;;;24.70;99.90;;;;;;7398417;19;19915;-74
2023/07/29 05:57:12;;;;;;;6.43;2.63;;;24.80;99.90;;;;;;7374558;19;20523;-74
2023/07/29 05:59:38;;;;;;;5.80;2.40;;;24.80;99.90;;;;;;7396573;19;20265;-75
2023/07/29 06:02:04;;;;;;;6.82;2.72;;;24.90;99.90;;;;;;7397066;19;20308;-76
2023/07/29 06:04:30;;;;;;;;;;;24.90;99.90;;;;;;7401461;19;19927;-75
2023/07/29 06:06:56;;;;;;;6.68;2.63;;;25.00;99.90;;;;;;7395998;19;19958;-75
2023/07/29 06:09:22;;;;;;;6.70;2.60;;;25.00;99.90;;;;;;7395893;19;19944;-74
2023/07/29 06:11:48;;;;;;;;;;;25.10;99.90;;;;;;7399446;19;20323;-75
2023/07/29 06:14:14;;;;;;;7.65;2.70;;;25.10;99.90;;;;;;7345918;19;19986;-75
2023/07/29 06:16:40;;;;;;;8.60;2.67;;;25.20;99.90;;;;;;7397267;19;19927;-75
2023/07/29 06:19:08;;;;;;;8.48;3.20;;;25.10;99.90;;;;;;7396519;19;20396;-74
2023/07/29 06:21:34;;;;;;;10.02;3.13;;;25.10;99.90;;;;;;7397677;19;19935;-74
2023/07/29 06:24:01;;;;;;;7.32;2.60;;;25.10;99.90;;;;;;7397281;19;19978;-75
2023/07/29 06:26:27;;;;;;;7.03;2.80;;;25.20;99.90;;;;;;7393954;19;19943;-74
2023/07/29 06:28:53;;;;;;;7.63;2.83;;;25.30;99.90;;;;;;7399146;19;19929;-74
2023/07/29 06:31:20;;;;;;;8.95;2.70;;;25.40;99.90;;;;;;7398533;19;19914;-75
2023/07/29 06:33:46;;;;;;;7.57;2.63;;;25.40;99.90;;;;;;7396541;19;20017;-75
2023/07/29 06:36:12;;;;;;;7.05;2.72;;;25.40;99.90;;;;;;7395290;19;19906;-75
2023/07/29 06:38:40;;;;;;;6.57;3.35;;;25.50;99.90;;;;;;7379802;19;19982;-75
2023/07/29 06:41:06;;;;;;;8.20;2.63;;;25.50;99.90;;;;;;7380903;19;19915;-74
2023/07/29 06:43:32;;;;;;;7.50;2.75;;;25.60;99.90;;;;;;7404301;19;19910;-74
2023/07/29 06:45:58;;;;;;;8.23;2.75;;;25.70;99.90;;;;;;7390654;19;19922;-74
2023/07/29 06:48:24;;;;;;;7.03;3.05;;;25.70;99.90;;;;;;7373820;19;19945;-75
2023/07/29 06:50:50;;;;;;;5.88;2.40;;;25.80;99.90;;;;;;7399219;19;19994;-76
2023/07/29 06:53:16;;;;;;;;;;;25.70;99.90;;;;;;7401436;19;19927;-75
2023/07/29 06:55:43;;;;;;;7.57;3.08;;;25.80;99.90;;;;;;7382149;19;19919;-77
2023/07/29 06:58:09;;;;;;;7.15;3.60;;;25.80;99.90;;;;;;7399646;19;19918;-76
2023/07/29 07:00:35;;;;;;;6.30;2.92;;;25.80;99.90;;;;;;7393514;19;19910;-75
2023/07/29 07:03:04;;;;;;;8.55;2.78;;;25.70;99.90;;;;;;7399857;19;19922;-75
2023/07/29 07:05:29;;;;;;;7.07;2.58;;;25.60;99.90;;;;;;7400975;19;19927;-74
2023/07/29 07:07:55;;;;;;;6.10;2.55;;;25.90;99.90;;;;;;7402058;19;19922;-75
2023/07/29 07:10:21;;;;;;;7.47;3.17;;;25.90;99.90;;;;;;7379243;19;19923;-74
2023/07/29 07:12:47;;;;;;;8.95;2.58;;;26.00;99.90;;;;;;7400290;19;19910;-74
2023/07/29 07:15:13;;;;;;;10.65;3.00;;;26.10;99.90;;;;;;7401014;19;19923;-75
2023/07/29 07:17:39;;;;;;;10.30;2.60;;;26.20;99.90;;;;;;7401093;19;21672;-74
2023/07/29 07:20:05;;;;;;;9.32;3.47;;;26.40;99.90;;;;;;7400697;19;19918;-74
2023/07/29 07:22:34;;;;;;;7.25;3.45;;;26.40;99.90;;;;;;7401990;19;19911;-75
2023/07/29 07:25:00;;;;;;;5.95;2.80;;;26.20;99.90;;;;;;7399595;19;19959;-75
2023/07/29 07:27:26;;;;;;;7.30;2.83;;;26.10;99.90;;;;;;7403308;19;20012;-75
2023/07/29 07:29:51;;;;;;;9.30;2.80;;;26.10;99.90;;;;;;7403440;19;19921;-75
2023/07/29 07:32:17;;;;;;;6.85;2.55;;;26.20;99.90;;;;;;7401153;19;19914;-77
2023/07/29 07:34:43;;;;;;;7.47;2.45;;;26.30;99.90;;;;;;7408171;19;19939;-77
2023/07/29 07:37:09;;;;;;;7.00;2.13;;;26.20;99.90;;;;;;7400454;19;19915;-76
2023/07/29 07:39:35;;;;;;;7.85;3.53;;;26.20;99.90;;;;;;7402298;19;19982;-76
2023/07/29 07:42:00;;;;;;;7.95;2.70;;;26.30;99.90;;;;;;7401144;19;19915;-75
2023/07/29 07:44:26;;;;;;;8.13;3.63;;;26.30;99.60;;;;;;7400192;19;19918;-76
2023/07/29 07:46:55;;;;;;;8.88;2.47;;;26.30;99.90;;;;;;7401883;19;19911;-74
2023/07/29 07:49:21;;;;;;;8.60;2.97;;;26.40;99.90;;;;;;7402325;19;19938;-75
2023/07/29 07:51:47;;;;;;;7.03;3.00;;;26.60;99.90;;;;;;7402233;19;19922;-76
2023/07/29 07:54:13;;;;;;;6.20;2.72;;;26.70;98.30;;;;;;7398388;19;19943;-77
2023/07/29 07:56:39;;;;;;;6.35;2.40;;;26.50;98.20;;;;;;7401922;19;19974;-75
2023/07/29 07:59:04;;;;;;;8.95;3.25;;;26.70;98.10;;;;;;7401513;19;19929;-75
2023/07/29 08:01:40;;;;;;;6.43;2.53;;;26.90;98.10;;;;;;7404204;19;19927;-75
2023/07/29 08:04:06;;;;;;;8.07;3.13;;;26.80;98.20;;;;;;7401748;19;20343;-75
2023/07/29 08:06:33;;;;;;;8.63;2.85;;;27.00;97.80;;;;;;7401519;19;20565;-75
2023/07/29 08:08:59;;;;;;;8.55;3.13;;;27.10;97.30;;;;;;7402512;19;19918;-76
2023/07/29 08:11:25;;;;;;;7.00;2.72;;;27.20;96.80;;;;;;7402360;19;19933;-74
2023/07/29 08:13:51;;;;;;;6.25;2.80;;;27.20;96.70;;;;;;7399179;19;19956;-74
2023/07/29 08:16:17;;;;;;;7.15;3.17;;;27.40;95.40;;;;;;7396270;19;19924;-76
2023/07/29 08:18:44;;;;;;;8.10;3.40;;;27.20;95.70;;;;;;7401031;19;19923;-75
2023/07/29 08:21:10;;;;;;;10.15;3.30;;;27.10;96.30;;;;;;7398417;19;19919;-75
2023/07/29 08:23:36;;;;;;;8.05;2.88;;;27.40;94.90;;;;;;7399815;19;20350;-76
2023/07/29 08:26:05;;;;;;;8.63;3.97;;;27.30;95.20;;;;;;7401574;19;20276;-74
2023/07/29 08:28:34;;;;;;;9.55;3.20;;;27.20;95.80;;;;;;7404984;19;19927;-75
2023/07/29 08:31:00;;;;;;;8.77;3.45;;;27.20;95.80;;;;;;7405000;19;19926;-74
2023/07/29 08:33:26;;;;;;;8.27;2.78;;;27.00;97.00;;;;;;7398984;19;19925;-75
2023/07/29 08:35:52;;;;;;;8.02;3.42;;;27.40;96.50;;;;;;7377860;19;19925;-75
2023/07/29 08:38:18;;;;;;;8.55;3.47;;;27.30;96.10;;;;;;7398547;19;19915;-76
2023/07/29 08:41:16;;;;;;;6.30;2.58;;;27.40;95.60;;;;;;7401272;19;19926;-75
2023/07/29 08:44:01;;;;;;;8.40;3.08;;;27.30;95.70;;;;;;7400492;19;19910;-76
2023/07/29 08:46:29;;;;;;;8.70;3.40;;;27.00;97.00;;;;;;7397091;19;19914;-74
2023/07/29 08:48:55;;;;;;;8.43;3.80;;;27.10;96.80;;;;;;7397777;19;19974;-75
2023/07/29 08:51:23;;;;;;;9.43;3.50;;;27.40;96.30;;;;;;7396892;19;19932;-75
2023/07/29 08:53:51;;;;;;;8.80;3.30;;;27.30;96.00;;;;;;7399649;19;19926;-74
2023/07/29 08:56:19;;;;;;;8.68;2.53;;;27.20;96.40;;;;;;7397211;19;19933;-75
2023/07/29 08:58:45;;;;;;;5.70;2.45;;;27.30;96.50;;;;;;7401134;19;20279;-75
2023/07/29 09:01:11;;;;;;;7.25;2.47;;;27.60;96.10;;;;;;7399820;19;19915;-74
2023/07/29 09:03:37;;;;;;;;;;;27.50;95.00;;;;;;7401846;19;19948;-76
2023/07/29 09:06:03;;;;;;;7.80;2.92;;;27.50;95.80;;;;;;7395741;19;19915;-74
2023/07/29 09:08:29;;;;;;;;;;;27.80;95.40;;;;;;7405258;19;19910;-75
2023/07/29 09:10:55;;;;;;;7.72;2.65;;;28.10;94.00;;;;;;7399080;19;19911;-75
2023/07/29 09:13:21;;;;;;;8.00;2.92;;;27.70;95.10;;;;;;7398173;19;19918;-75
2023/07/29 09:15:47;;;;;;;5.20;2.28;;;28.00;94.60;;;;;;7401123;19;19918;-76
2023/07/29 09:18:18;;;;;;;8.43;2.85;;;28.00;94.60;;;;;;7399747;19;19920;-75
2023/07/29 09:20:47;;;;;;;7.40;3.00;;;28.20;93.80;;;;;;7399255;19;19926;-75
2023/07/29 09:23:15;;;;;;;5.65;2.35;;;28.20;94.00;;;;;;7398843;19;20311;-74
2023/07/29 09:25:41;;;;;;;12.63;3.03;;;28.70;93.00;;;;;;7396617;19;19936;-75
2023/07/29 09:28:11;;;;;;;;;;;28.70;92.70;;;;;;7399127;19;19918;-74
2023/07/29 09:30:45;;;;;;;6.45;2.65;;;28.50;92.80;;;;;;7397676;19;20022;-75
2023/07/29 09:33:10;;;;;;;9.27;2.85;;;28.30;93.10;;;;;;7396435;19;19982;-74
2023/07/29 09:35:37;;;;;;;7.15;2.42;;;28.30;93.50;;;;;;7401469;19;19915;-73
2023/07/29 09:38:04;;;;;;;7.85;2.25;;;28.30;93.80;;;;;;7396495;19;19921;-76
2023/07/29 09:40:41;;;;;;;6.38;2.63;;;28.40;93.60;;;;;;7397384;19;19914;-74
2023/07/29 09:43:08;;;;;;;6.93;3.17;;;28.20;94.00;;;;;;7396321;19;20449;-74
2023/07/29 09:45:36;;;;;;;6.28;3.00;;;28.40;93.80;;;;;;7398539;19;20243;-73
2023/07/29 09:48:03;;;;;;;7.05;2.85;;;28.30;93.30;;;;;;7365917;19;20335;-74
2023/07/29 09:50:29;;;;;;;6.35;2.60;;;28.60;92.80;;;;;;7398012;19;20335;-74
2023/07/29 09:52:55;;;;;;;;;;;28.50;92.40;;;;;;7402408;19;19922;-73
2023/07/29 09:55:29;;;;;;;6.88;2.60;;;28.60;92.70;;;;;;7395194;19;19966;-74
2023/07/29 09:58:01;;;;;;;5.28;2.55;;;28.60;92.60;;;;;;7396722;19;19990;-74
2023/07/29 10:00:29;;;;;;;7.55;4.18;;;28.30;93.20;;;;;;7397085;19;19918;-74
2023/07/29 10:02:55;;;;;;;8.15;2.83;;;28.30;93.90;;;;;;7397725;19;19938;-75
2023/07/29 10:05:23;;;;;;;8.25;2.65;;;28.70;92.80;;;;;;7394634;19;19919;-75
2023/07/29 10:07:50;;;;;;;8.82;2.95;;;28.70;92.60;;;;;;7397513;19;20310;-73
2023/07/29 10:10:17;;;;;;;5.25;2.38;;;28.70;92.00;;;;;;7394630;19;19914;-74
2023/07/29 10:12:43;;;;;;;8.15;2.65;;;29.20;91.30;;;;;;7395349;19;19914;-74
2023/07/29 10:15:10;;;;;;;7.68;2.58;;;29.50;90.50;;;;;;7388281;19;19974;-74
2023/07/29 10:17:37;;;;;;;7.18;2.22;;;29.40;90.10;;;;;;7387527;19;19917;-76
2023/07/29 10:20:07;;;;;;;7.90;2.70;;;29.00;91.00;;;;;;7403318;19;19914;-74
2023/07/29 10:22:41;;;;;;;7.47;2.15;;;28.90;91.40;;;;;;7394060;19;20593;-75
2023/07/29 10:25:22;;;;;;;6.75;3.38;;;28.90;91.10;;;;;;7401070;19;20278;-76
2023/07/29 10:28:01;;;;;;;7.80;2.83;;;28.70;91.00;;;;;;7398079;19;19910;-74
2023/07/29 10:30:28;;;;;;;8.35;2.28;;;29.10;90.40;;;;;;7394190;19;19934;-74
2023/07/29 10:32:58;;;;;;;8.40;2.95;;;29.20;90.30;;;;;;7397099;19;19922;-75
2023/07/29 10:35:25;;;;;;;5.75;2.42;;;29.20;90.60;;;;;;7394196;19;19919;-74
2023/07/29 10:37:53;;;;;;;6.13;2.25;;;29.40;90.00;;;;;;7382151;19;19926;-75
2023/07/29 10:40:19;;;;;;;7.15;2.25;;;29.80;89.20;;;;;;7395236;19;19915;-74
2023/07/29 10:43:02;;;;;;;7.60;2.40;;;29.40;89.40;;;;;;7401024;19;19927;-74
2023/07/29 10:45:40;;;;;;;10.25;2.58;;;29.60;89.70;;;;;;7398300;19;19922;-75
2023/07/29 10:48:13;;;;;;;8.95;2.38;;;29.70;89.50;;;;;;7384842;19;19915;-73
2023/07/29 10:50:39;;;;;;;5.60;2.22;;;29.60;90.10;;;;;;7400281;19;19914;-74
2023/07/29 10:53:05;;;;;;;;;;;29.60;90.20;;;;;;7392889;19;19910;-73
2023/07/29 10:55:38;;;;;;;5.60;2.28;;;29.80;89.40;;;;;;7394806;19;19923;-74
2023/07/29 10:58:17;;;;;;;6.05;2.45;;;30.00;88.60;;;;;;7398135;19;19951;-74
2023/07/29 11:00:46;;;;;;;6.53;2.25;;;29.70;87.70;;;;;;7393876;19;19930;-72
2023/07/29 11:03:14;;;;;;;7.45;1.98;;;29.40;89.00;;;;;;7394066;19;19934;-75
2023/07/29 11:05:44;;;;;;;7.55;2.38;;;29.80;88.20;;;;;;7362583;19;19933;-74
2023/07/29 11:08:28;;;;;;;7.18;2.53;;;29.50;88.30;;;;;;7386804;19;19913;-74
2023/07/29 11:11:06;;;;;;;5.97;2.00;;;29.50;87.90;;;;;;7397505;19;19982;-75
2023/07/29 11:13:33;;;;;;;;;;;29.80;87.20;;;;;;7399897;19;20280;-74
2023/07/29 11:15:59;;;;;;;6.13;2.05;;;29.70;87.50;;;;;;7387556;19;19999;-74
2023/07/29 11:18:30;;;;;;;7.65;2.40;;;29.80;87.70;;;;;;7400395;19;19994;-74
2023/07/29 11:20:57;;;;;;;5.22;2.53;;;29.80;87.70;;;;;;7400600;19;19942;-74
2023/07/29 11:23:31;;;;;;;4.88;1.75;;;30.30;84.60;;;;;;7400647;19;20351;-74
2023/07/29 11:25:58;;;;;;;9.30;2.60;;;30.30;84.50;;;;;;7405158;19;20339;-75
2023/07/29 11:28:25;;;;;;;6.25;2.25;;;30.70;83.80;;;;;;7406339;19;19942;-76
2023/07/29 11:30:51;;;;;;;6.55;2.15;;;30.40;83.80;;;;;;7407613;19;19913;-75
2023/07/29 11:33:19;;;;;;;6.82;2.30;;;30.20;84.30;;;;;;7404715;19;19922;-78
2023/07/29 11:35:45;;;;;;;7.65;2.60;;;30.70;84.40;;;;;;7405794;19;19926;-75
2023/07/29 11:38:16;;;;;;;8.50;2.72;;;30.90;83.00;;;;;;7403065;19;19911;-76
2023/07/29 11:40:42;;;;;;;6.60;2.22;;;31.00;82.40;;;;;;7405039;19;19918;-75
2023/07/29 11:43:08;;;;;;;6.30;2.78;;;30.60;84.30;;;;;;7403562;19;19946;-76
2023/07/29 11:45:34;;;;;;;9.68;2.15;;;31.30;82.60;;;;;;7407621;19;19942;-76
2023/07/29 11:48:01;;;;;;;6.45;3.53;;;31.20;82.40;;;;;;7409119;19;20282;-75
2023/07/29 11:50:27;;;;;;;8.65;3.30;;;30.50;84.90;;;;;;7408251;19;20283;-75
2023/07/29 11:52:54;;;;;;;5.47;2.25;;;30.70;85.00;;;;;;7403604;19;19986;-77
2023/07/29 11:55:24;;;;;;;6.45;2.03;;;30.90;83.80;;;;;;7401644;19;19922;-77
2023/07/29 11:57:52;;;;;;;8.23;2.55;;;31.10;83.40;;;;;;7402747;19;20354;-76
2023/07/29 12:00:18;;;;;;;8.85;2.42;;;31.10;83.70;;;;;;7401796;19;20030;-76
2023/07/29 12:02:46;;;;;;;7.53;3.58;;;31.10;84.50;;;;;;7404516;19;20265;-75
2023/07/29 12:05:13;;;;;;;8.85;3.10;;;31.30;82.70;;;;;;7404120;19;20300;-75
2023/07/29 12:07:41;;;;;;;5.95;2.85;;;31.60;81.80;;;;;;7405369;19;19914;-74
2023/07/29 12:10:09;;;;;;;6.78;3.15;;;31.50;81.80;;;;;;7403911;19;19913;-75
2023/07/29 12:12:45;;;;;;;6.38;2.63;;;31.80;81.10;;;;;;7407790;19;19914;-76
2023/07/29 12:15:11;;;;;;;6.95;2.63;;;31.40;82.50;;;;;;7404523;19;19933;-75
2023/07/29 12:17:40;;;;;;;;;;;30.90;83.50;;;;;;7406210;19;20458;-74
2023/07/29 12:20:09;;;;;;;5.93;2.58;;;31.20;84.20;;;;;;7403632;19;20015;-76
2023/07/29 12:22:35;;;;;;;9.57;2.60;;;31.60;84.80;;;;;;7399867;19;19914;-74
2023/07/29 12:25:02;;;;;;;7.90;2.42;;;31.30;85.50;;;;;;7403850;19;20228;-76
2023/07/29 12:27:31;;;;;;;8.32;4.43;;;31.80;83.80;;;;;;7400519;19;20283;-75
2023/07/29 12:29:58;;;;;;;6.68;2.78;;;31.60;83.70;;;;;;7401643;19;19922;-73
2023/07/29 12:32:26;;;;;;;6.30;2.28;;;31.50;83.10;;;;;;7397511;19;20345;-73
2023/07/29 12:34:53;;;;;;;9.55;2.60;;;30.70;85.40;;;;;;7401780;19;19926;-74
2023/07/29 12:37:19;;;;;;;7.22;2.60;;;30.90;85.80;;;;;;7397093;19;19918;-74
2023/07/29 12:39:45;;;;;;;;;;;31.70;84.40;;;;;;7400286;19;19967;-75
2023/07/29 12:42:11;;;;;;;8.05;3.22;;;31.40;85.00;;;;;;7398475;19;19915;-75
2023/07/29 12:44:38;;;;;;;9.52;4.65;;;31.70;83.90;;;;;;7399710;19;20276;-73
2023/07/29 12:47:06;;;;;;;7.38;2.88;;;32.50;81.20;;;;;;7397833;19;19915;-74
2023/07/29 12:49:32;;;;;;;9.55;2.78;;;31.30;84.60;;;;;;7400129;19;19924;-75